createdAt,value
2023-08-11T00:00:57.082Z,5.00
2023-08-11T00:03:24.795Z,5.00
2023-08-11T00:05:54.736Z,5.05
2023-08-11T00:08:22.818Z,4.88
2023-08-11T00:10:50.910Z,4.65
2023-08-11T00:13:18.568Z,4.78
2023-08-11T00:15:46.333Z,4.65
2023-08-11T00:18:14.054Z,4.35
2023-08-11T00:20:41.777Z,4.50
2023-08-11T00:23:09.424Z,4.70
2023-08-11T00:25:37.094Z,5.10
2023-08-11T00:28:05.377Z,4.80
2023-08-11T00:30:32.989Z,4.57
2023-08-11T00:33:00.858Z,4.60
2023-08-11T00:35:29.401Z,4.60
2023-08-11T00:37:57.730Z,4.15
2023-08-11T00:40:25.460Z,4.57
2023-08-11T00:42:53.942Z,4.70
2023-08-11T00:45:22.134Z,4.57
2023-08-11T00:47:50.485Z,4.38
2023-08-11T00:50:18.323Z,4.43
2023-08-11T00:52:47.425Z,4.05
2023-08-11T00:55:15.630Z,4.18
2023-08-11T00:57:44.009Z,4.50
2023-08-11T01:00:16.014Z,4.68
2023-08-11T01:02:46.188Z,4.43
2023-08-11T01:05:16.737Z,5.00
2023-08-11T01:08:10.327Z,4.38
2023-08-11T01:10:58.287Z,4.32
2023-08-11T01:13:30.474Z,4.13
2023-08-11T01:16:00.534Z,4.10
2023-08-11T01:18:30.452Z,3.60
2023-08-11T01:21:05.106Z,3.88
2023-08-11T01:23:33.641Z,4.20
2023-08-11T01:26:02.691Z,4.47
2023-08-11T01:28:30.493Z,3.92
2023-08-11T01:30:58.242Z,4.25
2023-08-11T01:33:25.929Z,4.10
2023-08-11T01:35:54.208Z,4.38
2023-08-11T01:38:22.150Z,3.30
2023-08-11T01:40:50.467Z,3.83
2023-08-11T01:43:18.947Z,3.72
2023-08-11T01:45:46.829Z,3.25
2023-08-11T01:48:15.920Z,3.50
2023-08-11T01:50:44.170Z,3.90
2023-08-11T01:53:12.323Z,3.50
2023-08-11T01:55:40.701Z,3.53
2023-08-11T01:58:09.214Z,3.83
2023-08-11T02:00:36.880Z,3.60
2023-08-11T02:03:05.458Z,3.50
2023-08-11T02:05:33.335Z,3.35
2023-08-11T02:08:01.598Z,3.55
2023-08-11T02:10:31.204Z,3.75
2023-08-11T02:12:59.123Z,3.53
2023-08-11T02:15:26.884Z,3.38
2023-08-11T02:17:55.295Z,3.13
2023-08-11T02:20:24.408Z,2.97
2023-08-11T02:22:54.201Z,2.78
2023-08-11T02:25:23.751Z,2.88
2023-08-11T02:27:51.938Z,3.20
2023-08-11T02:30:20.470Z,2.70
2023-08-11T02:32:48.440Z,2.65
2023-08-11T02:35:18.988Z,3.25
2023-08-11T02:37:47.281Z,3.03
2023-08-11T02:40:16.173Z,2.90
2023-08-11T02:42:45.956Z,2.80
2023-08-11T02:45:13.806Z,2.88
2023-08-11T02:47:43.627Z,2.60
2023-08-11T02:50:12.270Z,2.63
2023-08-11T02:52:40.547Z,2.80
2023-08-11T02:55:09.287Z,3.10
2023-08-11T02:57:38.433Z,2.90
2023-08-11T03:00:16.771Z,2.78
2023-08-11T03:02:49.398Z,2.60
2023-08-11T03:05:18.293Z,2.50
2023-08-11T03:07:50.519Z,3.05
2023-08-11T03:10:18.857Z,2.88
2023-08-11T03:12:47.514Z,2.63
2023-08-11T03:15:15.197Z,3.00
2023-08-11T03:17:43.758Z,2.63
2023-08-11T03:20:15.071Z,2.63
2023-08-11T03:22:45.747Z,2.50
2023-08-11T03:25:16.616Z,2.60
2023-08-11T03:27:44.797Z,2.50
2023-08-11T03:30:39.050Z,2.40
2023-08-11T03:33:06.716Z,2.72
2023-08-11T03:35:50.229Z,2.60
2023-08-11T03:38:18.343Z,2.40
2023-08-11T03:40:46.037Z,2.47
2023-08-11T03:43:14.079Z,2.42
2023-08-11T03:45:42.024Z,2.53
2023-08-11T03:48:13.953Z,2.40
2023-08-11T03:50:41.811Z,2.42
2023-08-11T03:53:09.586Z,2.10
2023-08-11T03:55:39.864Z,2.10
2023-08-11T03:58:08.568Z,2.00
2023-08-11T04:00:38.309Z,2.17
2023-08-11T04:03:11.111Z,1.90
2023-08-11T04:05:39.092Z,2.30
2023-08-11T04:08:06.911Z,2.50
2023-08-11T04:10:36.691Z,2.05
2023-08-11T04:13:05.179Z,2.20
2023-08-11T04:15:32.945Z,2.10
2023-08-11T04:18:01.186Z,1.98
2023-08-11T04:20:30.271Z,2.10
2023-08-11T04:22:58.261Z,2.10
2023-08-11T04:25:26.534Z,2.40
2023-08-11T04:27:54.182Z,2.08
2023-08-11T04:30:21.947Z,2.00
2023-08-11T04:32:52.411Z,1.90
2023-08-11T04:35:20.842Z,2.17
2023-08-11T04:37:50.065Z,2.00
2023-08-11T04:40:19.856Z,1.90
2023-08-11T04:42:50.102Z,2.00
2023-08-11T04:45:22.290Z,1.98
2023-08-11T04:47:51.089Z,1.67
2023-08-11T04:50:21.446Z,2.22
2023-08-11T04:52:53.232Z,2.45
2023-08-11T04:55:20.998Z,2.10
2023-08-11T04:57:49.188Z,2.10
2023-08-11T05:00:18.698Z,2.15
2023-08-11T05:02:47.020Z,2.10
2023-08-11T05:05:15.456Z,2.30
2023-08-11T05:07:43.633Z,2.30
2023-08-11T05:10:11.502Z,2.38
2023-08-11T05:12:40.041Z,2.40
2023-08-11T05:15:08.160Z,2.42
2023-08-11T05:17:35.994Z,2.22
2023-08-11T05:20:07.481Z,2.30
2023-08-11T05:22:38.926Z,2.10
2023-08-11T05:25:07.252Z,2.35
2023-08-11T05:27:35.106Z,2.50
2023-08-11T05:30:03.504Z,2.17
2023-08-11T05:32:33.183Z,2.10
2023-08-11T05:35:00.961Z,2.40
2023-08-11T05:37:28.888Z,2.67
2023-08-11T05:39:57.111Z,2.70
2023-08-11T05:42:25.482Z,2.15
2023-08-11T05:44:53.348Z,2.13
2023-08-11T05:47:21.032Z,1.77
2023-08-11T05:49:48.801Z,1.75
2023-08-11T05:52:16.634Z,1.80
2023-08-11T05:54:44.498Z,1.83
2023-08-11T05:57:12.329Z,1.70
2023-08-11T05:59:40.032Z,1.70
2023-08-11T06:02:08.158Z,1.65
2023-08-11T06:04:36.899Z,1.70
2023-08-11T06:07:04.979Z,1.80
2023-08-11T06:09:32.815Z,1.65
2023-08-11T06:12:00.513Z,1.60
2023-08-11T06:14:28.972Z,1.33
2023-08-11T06:16:57.308Z,1.10
2023-08-11T06:19:25.710Z,1.10
2023-08-11T06:21:54.661Z,1.02
2023-08-11T06:24:22.709Z,1.08
2023-08-11T06:26:51.138Z,1.35
2023-08-11T06:29:19.044Z,1.38
2023-08-11T06:31:47.137Z,1.90
2023-08-11T06:34:18.674Z,1.00
2023-08-11T06:36:49.760Z,1.27
2023-08-11T06:39:17.594Z,1.00
2023-08-11T06:41:45.444Z,1.17
2023-08-11T06:44:14.071Z,1.05
2023-08-11T06:46:41.967Z,1.00
2023-08-11T06:49:09.594Z,0.95
2023-08-11T06:51:37.314Z,1.20
2023-08-11T06:54:05.437Z,0.95
2023-08-11T06:56:33.228Z,1.20
2023-08-11T06:59:00.967Z,1.25
2023-08-11T07:01:28.823Z,1.20
2023-08-11T07:03:57.539Z,1.20
2023-08-11T07:06:27.117Z,1.10
2023-08-11T07:08:54.754Z,1.30
2023-08-11T07:11:22.567Z,0.90
2023-08-11T07:13:50.292Z,0.95
2023-08-11T07:16:18.081Z,1.00
2023-08-11T07:18:46.004Z,1.00
2023-08-11T07:21:13.800Z,1.08
2023-08-11T07:23:41.658Z,1.60
2023-08-11T07:26:09.479Z,1.40
2023-08-11T07:28:37.153Z,1.20
2023-08-11T07:31:04.912Z,1.10
2023-08-11T07:33:32.729Z,1.00
2023-08-11T07:36:00.668Z,1.00
2023-08-11T07:38:28.475Z,2.55
2023-08-11T07:40:56.319Z,0.93
2023-08-11T07:43:24.032Z,1.40
2023-08-11T07:45:52.039Z,1.10
2023-08-11T07:48:20.114Z,1.17
2023-08-11T07:50:47.955Z,1.17
2023-08-11T07:53:15.840Z,1.30
2023-08-11T07:55:43.489Z,1.20
2023-08-11T07:58:11.308Z,1.10
2023-08-11T08:00:39.189Z,1.00
2023-08-11T08:03:07.273Z,1.00
2023-08-11T08:05:35.469Z,1.27
2023-08-11T08:08:03.195Z,1.15
2023-08-11T08:10:31.134Z,1.40
2023-08-11T08:12:58.977Z,0.95
2023-08-11T08:15:29.772Z,1.05
2023-08-11T08:17:57.649Z,1.00
2023-08-11T08:20:25.514Z,0.90
2023-08-11T08:22:53.212Z,1.13
2023-08-11T08:25:21.312Z,1.08
2023-08-11T08:27:57.428Z,0.90
2023-08-11T08:30:33.161Z,0.93
2023-08-11T08:33:00.982Z,0.90
2023-08-11T08:35:28.807Z,1.08
2023-08-11T08:37:56.503Z,1.20
2023-08-11T08:40:24.716Z,1.30
2023-08-11T08:42:52.692Z,1.30
2023-08-11T08:45:22.205Z,1.42
2023-08-11T08:47:52.612Z,1.45
2023-08-11T08:50:20.959Z,1.30
2023-08-11T08:52:49.029Z,1.30
2023-08-11T08:55:16.892Z,1.40
2023-08-11T08:57:45.050Z,1.20
2023-08-11T09:00:13.170Z,1.00
2023-08-11T09:02:43.313Z,1.17
2023-08-11T09:05:13.320Z,1.10
2023-08-11T09:07:41.531Z,1.00
2023-08-11T09:10:10.120Z,0.95
2023-08-11T09:12:37.863Z,0.88
2023-08-11T09:15:10.985Z,1.20
2023-08-11T09:17:40.154Z,1.08
2023-08-11T09:20:11.424Z,1.30
2023-08-11T09:22:40.242Z,1.30
2023-08-11T09:25:09.353Z,1.27
2023-08-11T09:27:37.718Z,1.00
2023-08-11T09:30:06.048Z,1.00
2023-08-11T09:32:34.689Z,1.27
2023-08-11T09:35:08.802Z,1.08
2023-08-11T09:37:38.409Z,1.30
2023-08-11T09:40:07.780Z,1.45
2023-08-11T09:42:35.436Z,1.30
2023-08-11T09:45:03.401Z,1.30
2023-08-11T09:47:32.176Z,1.45
2023-08-11T09:50:00.599Z,1.80
2023-08-11T09:52:30.878Z,1.40
2023-08-11T09:55:00.121Z,1.38
2023-08-11T09:57:29.228Z,1.38
2023-08-11T09:59:58.893Z,1.50
2023-08-11T10:02:31.936Z,1.80
2023-08-11T10:05:10.326Z,1.30
2023-08-11T10:07:43.671Z,1.50
2023-08-11T10:10:15.334Z,1.10
2023-08-11T10:12:49.770Z,1.38
2023-08-11T10:15:21.161Z,1.40
2023-08-11T10:17:50.097Z,1.13
2023-08-11T10:20:18.917Z,1.10
2023-08-11T10:22:46.812Z,1.40
2023-08-11T10:25:15.244Z,1.30
2023-08-11T10:27:44.749Z,1.40
2023-08-11T10:30:15.960Z,1.30
2023-08-11T10:32:43.745Z,1.45
2023-08-11T10:35:19.776Z,1.75
2023-08-11T10:38:00.916Z,2.10
2023-08-11T10:40:36.673Z,1.50
2023-08-11T10:43:06.074Z,1.35
2023-08-11T10:45:35.681Z,1.50
2023-08-11T10:48:11.183Z,1.70
2023-08-11T10:50:40.091Z,1.70
2023-08-11T10:53:22.170Z,1.60
2023-08-11T10:56:04.432Z,1.35
2023-08-11T10:58:32.595Z,1.60
2023-08-11T11:01:01.363Z,1.40
2023-08-11T11:03:29.275Z,1.80
2023-08-11T11:05:57.183Z,1.50
2023-08-11T11:08:24.938Z,1.40
2023-08-11T11:10:52.758Z,1.80
2023-08-11T11:13:20.392Z,1.65
2023-08-11T11:15:48.306Z,1.77
2023-08-11T11:18:16.691Z,1.60
2023-08-11T11:20:45.815Z,1.98
2023-08-11T11:23:14.546Z,3.53
2023-08-11T11:25:42.457Z,1.85
2023-08-11T11:28:13.257Z,1.60
2023-08-11T11:30:41.343Z,1.40
2023-08-11T11:33:09.231Z,1.60
2023-08-11T11:35:36.897Z,1.80
2023-08-11T11:38:07.825Z,1.60
2023-08-11T11:40:35.440Z,1.70
2023-08-11T11:43:03.164Z,1.75
2023-08-11T11:45:31.144Z,1.55
2023-08-11T11:47:59.173Z,1.75
2023-08-11T11:50:29.445Z,1.40
2023-08-11T11:52:57.142Z,1.58
2023-08-11T11:55:24.906Z,1.55
2023-08-11T11:57:52.877Z,1.30
2023-08-11T12:00:22.967Z,1.50
2023-08-11T12:02:51.934Z,2.45
2023-08-11T12:05:19.783Z,1.58
2023-08-11T12:07:47.524Z,1.60
2023-08-11T12:10:17.119Z,1.90
2023-08-11T12:12:44.813Z,2.20
2023-08-11T12:15:15.157Z,2.17
2023-08-11T12:17:43.009Z,1.98
2023-08-11T12:20:11.767Z,1.95
2023-08-11T12:22:39.635Z,1.90
2023-08-11T12:25:07.855Z,1.67
2023-08-11T12:27:37.777Z,1.52
2023-08-11T12:30:08.079Z,2.00
2023-08-11T12:32:35.838Z,1.98
2023-08-11T12:35:04.341Z,2.00
2023-08-11T12:37:32.266Z,1.90
2023-08-11T12:40:01.738Z,2.10
2023-08-11T12:42:31.966Z,2.10
2023-08-11T12:44:59.670Z,2.00
2023-08-11T12:47:27.605Z,1.90
2023-08-11T12:49:55.616Z,2.05
2023-08-11T12:52:23.655Z,1.80
2023-08-11T12:54:53.233Z,1.70
2023-08-11T12:57:20.864Z,2.13
2023-08-11T12:59:48.601Z,1.98
2023-08-11T13:02:16.499Z,2.05
2023-08-11T13:04:45.458Z,1.98
2023-08-11T13:07:13.265Z,2.10
2023-08-11T13:09:41.021Z,2.08
2023-08-11T13:12:13.725Z,2.13
2023-08-11T13:14:42.601Z,2.55
2023-08-11T13:17:12.097Z,3.03
2023-08-11T13:19:40.054Z,2.35
2023-08-11T13:22:09.693Z,2.50
2023-08-11T13:24:37.833Z,2.58
2023-08-11T13:27:05.659Z,2.28
2023-08-11T13:29:33.572Z,2.40
2023-08-11T13:32:01.360Z,2.40
2023-08-11T13:34:29.929Z,2.17
2023-08-11T13:36:58.851Z,2.40
2023-08-11T13:39:26.602Z,4.40
2023-08-11T13:41:55.160Z,2.13
2023-08-11T13:44:22.940Z,2.13
2023-08-11T13:46:50.656Z,2.80
2023-08-11T13:49:18.497Z,2.40
2023-08-11T13:51:46.737Z,2.97
2023-08-11T13:54:14.581Z,3.30
2023-08-11T13:56:42.401Z,2.70
2023-08-11T13:59:10.434Z,2.67
2023-08-11T14:01:38.227Z,2.40
2023-08-11T14:04:08.290Z,2.50
2023-08-11T14:06:35.956Z,2.75
2023-08-11T14:09:04.315Z,2.50
2023-08-11T14:11:32.340Z,2.60
2023-08-11T14:14:01.375Z,2.50
2023-08-11T14:16:29.249Z,2.78
2023-08-11T14:18:57.288Z,2.60
2023-08-11T14:21:25.558Z,3.08
2023-08-11T14:23:53.457Z,2.80
2023-08-11T14:26:21.142Z,2.60
2023-08-11T14:28:48.951Z,2.60
2023-08-11T14:31:16.651Z,2.35
2023-08-11T14:33:44.447Z,2.20
2023-08-11T14:36:13.234Z,2.58
2023-08-11T14:38:42.003Z,2.38
2023-08-11T14:41:09.714Z,2.47
2023-08-11T14:43:37.490Z,2.55
2023-08-11T14:46:05.334Z,2.50
2023-08-11T14:48:33.053Z,3.05
2023-08-11T14:51:00.844Z,2.75
2023-08-11T14:53:30.697Z,3.03
2023-08-11T14:55:58.396Z,2.90
2023-08-11T15:00:54.977Z,2.88
2023-08-11T15:03:23.054Z,2.90
2023-08-11T15:05:50.868Z,2.70
2023-08-11T15:08:18.662Z,2.75
2023-08-11T15:10:46.718Z,3.10
2023-08-11T15:13:16.880Z,3.03
2023-08-11T15:15:44.996Z,3.03
2023-08-11T15:18:12.680Z,2.83
2023-08-11T15:20:41.505Z,3.13
2023-08-11T15:23:09.170Z,2.80
2023-08-11T15:25:40.661Z,2.42
2023-08-11T15:28:09.568Z,2.80
2023-08-11T15:30:37.310Z,3.08
2023-08-11T15:33:06.437Z,3.20
2023-08-11T15:35:34.334Z,2.60
2023-08-11T15:38:02.058Z,3.25
2023-08-11T15:40:29.918Z,3.28
2023-08-11T15:42:58.432Z,2.80
2023-08-11T15:45:26.175Z,2.60
2023-08-11T15:47:53.979Z,3.10
2023-08-11T15:50:21.879Z,3.40
2023-08-11T15:52:49.502Z,3.10
2023-08-11T15:55:22.525Z,3.20
2023-08-11T15:57:55.000Z,3.58
2023-08-11T16:00:22.728Z,3.30
2023-08-11T16:02:50.515Z,3.50
2023-08-11T16:05:18.410Z,3.67
2023-08-11T16:07:46.263Z,3.17
2023-08-11T16:10:14.164Z,3.92
2023-08-11T16:12:41.926Z,3.28
2023-08-11T16:15:10.196Z,4.22
2023-08-11T16:17:38.018Z,3.60
2023-08-11T16:20:07.634Z,3.40
2023-08-11T16:22:35.780Z,4.03
2023-08-11T16:25:03.559Z,4.22
2023-08-11T16:27:34.778Z,4.10
2023-08-11T16:30:03.020Z,4.10
2023-08-11T16:32:33.006Z,4.20
2023-08-11T16:35:00.579Z,4.63
2023-08-11T16:37:28.327Z,4.07
2023-08-11T16:39:56.253Z,4.65
2023-08-11T16:42:24.064Z,4.45
2023-08-11T16:44:51.770Z,4.28
2023-08-11T16:47:19.425Z,4.55
2023-08-11T16:49:47.368Z,4.85
2023-08-11T16:52:15.302Z,4.43
2023-08-11T16:54:43.080Z,5.15
2023-08-11T16:57:10.945Z,5.05
2023-08-11T16:59:38.626Z,5.93
2023-08-11T17:02:06.990Z,5.68
2023-08-11T17:04:34.668Z,7.28
2023-08-11T17:07:02.355Z,7.70
2023-08-11T17:09:30.197Z,6.10
2023-08-11T17:11:58.548Z,6.22
2023-08-11T17:14:26.116Z,6.03
2023-08-11T17:16:53.970Z,5.13
2023-08-11T17:19:21.827Z,4.78
2023-08-11T17:21:49.787Z,4.25
2023-08-11T17:24:17.502Z,4.30
2023-08-11T17:26:45.156Z,4.07
2023-08-11T17:29:12.927Z,4.35
2023-08-11T17:31:40.679Z,3.88
2023-08-11T17:34:08.476Z,3.80
2023-08-11T17:36:36.382Z,3.70
2023-08-11T17:39:04.104Z,3.50
2023-08-11T17:41:32.019Z,3.90
2023-08-11T17:43:59.844Z,4.40
2023-08-11T17:46:28.334Z,4.38
2023-08-11T17:48:56.261Z,3.80
2023-08-11T17:51:25.390Z,4.10
2023-08-11T17:54:08.161Z,4.47
2023-08-11T17:56:38.685Z,4.25
2023-08-11T17:59:06.857Z,4.18
2023-08-11T18:01:34.717Z,4.72
2023-08-11T18:04:06.236Z,4.40
2023-08-11T18:06:36.363Z,3.97
2023-08-11T18:09:07.252Z,4.43
2023-08-11T18:11:36.591Z,4.30
2023-08-11T18:14:05.364Z,3.97
2023-08-11T18:16:34.016Z,3.60
2023-08-11T18:19:02.108Z,3.53
2023-08-11T18:21:30.018Z,4.00
2023-08-11T18:23:57.733Z,3.90
2023-08-11T18:26:25.505Z,4.10
2023-08-11T18:28:53.253Z,3.65
2023-08-11T18:31:20.964Z,3.58
2023-08-11T18:33:48.811Z,3.60
2023-08-11T18:36:16.745Z,3.67
2023-08-11T18:38:46.375Z,3.60
2023-08-11T18:41:14.049Z,3.85
2023-08-11T18:43:42.540Z,3.88
2023-08-11T18:46:10.338Z,3.90
2023-08-11T18:48:38.060Z,3.97
2023-08-11T18:51:05.742Z,3.83
2023-08-11T18:53:33.437Z,4.00
2023-08-11T18:56:02.601Z,3.85
2023-08-11T18:58:30.624Z,3.72
2023-08-11T19:00:58.406Z,3.67
2023-08-11T19:03:26.353Z,3.72
2023-08-11T19:05:54.088Z,3.53
2023-08-11T19:08:21.761Z,3.95
2023-08-11T19:10:49.635Z,3.50
2023-08-11T19:13:17.306Z,3.80
2023-08-11T19:15:48.911Z,3.20
2023-08-11T19:18:17.532Z,3.15
2023-08-11T19:20:48.004Z,3.20
2023-08-11T19:23:16.504Z,3.30
2023-08-11T19:25:44.325Z,3.30
2023-08-11T19:28:13.444Z,3.80
2023-08-11T19:30:41.325Z,3.20
2023-08-11T19:33:09.000Z,3.03
2023-08-11T19:35:36.972Z,3.47
2023-08-11T19:38:05.461Z,2.95
2023-08-11T19:40:33.188Z,3.33
2023-08-11T19:43:02.232Z,2.92
2023-08-11T19:45:29.924Z,2.97
2023-08-11T19:47:57.674Z,3.10
2023-08-11T19:50:25.439Z,2.60
2023-08-11T19:52:54.211Z,2.83
2023-08-11T19:55:21.914Z,2.90
2023-08-11T19:57:49.566Z,3.03
2023-08-11T20:00:17.442Z,3.00
2023-08-11T20:02:46.729Z,3.05
2023-08-11T20:05:14.721Z,3.20
2023-08-11T20:07:42.611Z,3.20
2023-08-11T20:10:10.627Z,3.53
2023-08-11T20:12:38.304Z,3.42
2023-08-11T20:15:06.875Z,3.58
2023-08-11T20:17:34.525Z,3.20
2023-08-11T20:20:02.232Z,4.00
2023-08-11T20:22:30.932Z,3.40
2023-08-11T20:24:59.073Z,3.35
2023-08-11T20:27:26.812Z,3.47
2023-08-11T20:29:54.396Z,3.42
2023-08-11T20:32:22.084Z,3.30
2023-08-11T20:34:49.753Z,3.30
2023-08-11T20:37:17.580Z,3.22
2023-08-11T20:39:45.279Z,3.30
2023-08-11T20:42:13.049Z,2.78
2023-08-11T20:44:40.716Z,2.60
2023-08-11T20:47:08.805Z,2.83
2023-08-11T20:49:36.734Z,3.00
2023-08-11T20:52:04.859Z,2.53
2023-08-11T20:54:32.510Z,2.60
2023-08-11T20:57:01.855Z,2.20
2023-08-11T20:59:31.798Z,2.40
2023-08-11T21:01:59.510Z,2.25
2023-08-11T21:04:27.259Z,2.30
2023-08-11T21:06:55.293Z,2.30
2023-08-11T21:09:23.388Z,2.40
2023-08-11T21:11:51.111Z,2.40
2023-08-11T21:14:19.276Z,2.08
2023-08-11T21:16:48.275Z,2.20
2023-08-11T21:19:15.971Z,2.30
2023-08-11T21:21:43.929Z,2.38
2023-08-11T21:24:11.695Z,2.58
2023-08-11T21:26:39.816Z,2.90
2023-08-11T21:29:08.307Z,2.65
2023-08-11T21:31:36.185Z,2.70
2023-08-11T21:34:10.601Z,3.30
2023-08-11T21:36:38.921Z,2.80
2023-08-11T21:39:07.975Z,3.00
2023-08-11T21:41:36.510Z,3.28
2023-08-11T21:44:04.510Z,3.10
2023-08-11T21:46:32.830Z,3.28
2023-08-11T21:49:00.768Z,3.72
2023-08-11T21:51:28.442Z,3.50
2023-08-11T21:53:56.193Z,3.45
2023-08-11T21:56:24.101Z,3.45
2023-08-11T21:58:51.703Z,3.10
2023-08-11T22:01:19.496Z,3.55
2023-08-11T22:03:48.392Z,3.90
2023-08-11T22:06:16.246Z,3.50
2023-08-11T22:08:44.216Z,3.50
2023-08-11T22:11:26.063Z,3.78
2023-08-11T22:14:00.010Z,4.05
2023-08-11T22:16:27.855Z,4.07
2023-08-11T22:18:55.574Z,3.92
2023-08-11T22:21:23.206Z,4.22
2023-08-11T22:23:50.980Z,4.05
2023-08-11T22:26:20.382Z,4.10
2023-08-11T22:28:48.208Z,4.32
2023-08-11T22:31:15.895Z,4.50
2023-08-11T22:33:43.516Z,4.60
2023-08-11T22:36:11.260Z,4.40
2023-08-11T22:38:39.198Z,4.03
2023-08-11T22:41:06.880Z,4.05
2023-08-11T22:43:34.598Z,3.80
2023-08-11T22:46:02.369Z,3.80
2023-08-11T22:48:31.463Z,4.00
2023-08-11T22:50:59.077Z,3.10
2023-08-11T22:53:26.791Z,3.63
2023-08-11T22:55:54.547Z,3.50
2023-08-11T22:58:22.295Z,3.42
2023-08-11T23:00:50.156Z,3.60
2023-08-11T23:03:17.885Z,3.20
2023-08-11T23:05:45.494Z,3.45
2023-08-11T23:08:13.266Z,3.20
2023-08-11T23:10:41.255Z,3.53
2023-08-11T23:13:09.314Z,3.08
2023-08-11T23:15:37.065Z,3.60
2023-08-11T23:18:05.140Z,3.72
2023-08-11T23:20:32.717Z,3.75
2023-08-11T23:23:00.383Z,4.00
2023-08-11T23:25:28.134Z,3.60
2023-08-11T23:27:55.853Z,3.70
2023-08-11T23:30:23.626Z,3.85
2023-08-11T23:32:51.383Z,4.25
2023-08-11T23:35:19.433Z,4.20
2023-08-11T23:37:47.197Z,3.83
2023-08-11T23:40:15.042Z,4.53
2023-08-11T23:42:42.703Z,4.32
2023-08-11T23:45:11.127Z,4.40
2023-08-11T23:47:38.967Z,4.70
2023-08-11T23:50:08.217Z,4.63
2023-08-11T23:52:36.007Z,4.50
2023-08-11T23:55:07.230Z,4.50
2023-08-11T23:57:37.307Z,4.00
